Time;durP1;ratioP1;P1;durP2;ratioP2;P2;SDS_P1;SDS_P2;PMS_P1;PMS_P2;Temp;Humidity;BMP_temperature;BMP_pressure;BME280_temperature;BME280_humidity;BME280_pressure;Samples;Min_cycle;Max_cycle;Signal;HPM_P1;HPM_P2
2024/01/19 00:01:16;;;;;;;141.87;37.60;;;-0.40;7.90;;;;;;5000213;28;20203;-91
2024/01/19 00:03:42;;;;;;;162.05;38.55;;;-0.40;8.20;;;;;;5007727;28;20182;-89
2024/01/19 00:06:07;;;;;;;148.50;36.83;;;-0.40;8.40;;;;;;5018390;28;20197;-89
2024/01/19 00:08:33;;;;;;;127.37;35.13;;;-0.40;9.20;;;;;;5013660;28;20430;-89
2024/01/19 00:10:58;;;;;;;166.80;38.23;;;-0.40;8.50;;;;;;5014025;28;20203;-88
2024/01/19 00:13:24;;;;;;;151.70;37.60;;;-0.40;10.90;;;;;;5014018;28;20840;-88
2024/01/19 00:15:52;;;;;;;168.60;37.13;;;-0.40;9.20;;;;;;5013935;28;20190;-88
2024/01/19 00:18:18;;;;;;;123.53;35.30;;;-0.30;10.40;;;;;;5011868;28;20186;-89
2024/01/19 00:20:45;;;;;;;141.10;37.17;;;-0.30;9.60;;;;;;5011314;28;20703;-89
2024/01/19 00:23:11;;;;;;;156.52;35.20;;;-0.30;10.50;;;;;;5005351;28;20250;-89
2024/01/19 00:25:40;;;;;;;244.30;40.30;;;-0.20;10.20;;;;;;5008111;28;20188;-88
2024/01/19 00:28:06;;;;;;;192.63;41.20;;;-0.30;4.40;;;;;;5011789;28;20269;-89
2024/01/19 00:30:32;;;;;;;145.13;35.70;;;-0.30;1.50;;;;;;5013362;28;20606;-90
2024/01/19 00:32:58;;;;;;;109.00;34.87;;;-0.30;1.00;;;;;;5029736;28;20523;-90
2024/01/19 00:35:23;;;;;;;156.23;36.90;;;-0.30;1.20;;;;;;5010927;28;20198;-89
2024/01/19 00:38:17;;;;;;;110.37;32.57;;;-0.30;2.60;;;;;;5015242;28;20216;-88
2024/01/19 00:40:54;;;;;;;90.85;32.83;;;-0.30;1.50;;;;;;5006858;28;20202;-88
2024/01/19 00:43:20;;;;;;;89.00;33.97;;;-0.30;1.00;;;;;;5010179;28;20193;-90
2024/01/19 00:45:46;;;;;;;93.77;33.47;;;-0.30;1.00;;;;;;5010625;28;20175;-90
2024/01/19 00:48:14;;;;;;;85.47;31.03;;;-0.20;1.00;;;;;;5024272;28;20495;-88
2024/01/19 00:50:52;;;;;;;93.38;30.95;;;-0.20;1.00;;;;;;5004503;28;20183;-89
2024/01/19 00:53:28;;;;;;;83.38;27.60;;;-0.20;1.00;;;;;;5014483;28;20583;-89
2024/01/19 00:55:54;;;;;;;72.20;29.02;;;-0.20;1.00;;;;;;5014286;28;20190;-89
2024/01/19 00:58:20;;;;;;;77.40;28.73;;;-0.20;1.00;;;;;;5002946;28;20675;-89
2024/01/19 01:03:28;;;;;;;63.10;28.63;;;-0.20;1.00;;;;;;5009853;26;20569;-89
2024/01/19 01:05:59;;;;;;;66.90;28.65;;;-0.20;1.00;;;;;;4990487;28;20277;-89
2024/01/19 01:08:26;;;;;;;56.47;25.88;;;-0.20;1.00;;;;;;4996716;28;20186;-88
2024/01/19 01:10:52;;;;;;;57.42;27.25;;;-0.30;1.00;;;;;;5018313;28;20194;-90
2024/01/19 01:13:18;;;;;;;58.28;28.25;;;-0.30;1.00;;;;;;5009674;28;20207;-89
2024/01/19 01:15:45;;;;;;;66.57;25.67;;;-0.30;1.00;;;;;;5013544;28;20586;-90
2024/01/19 01:18:11;;;;;;;69.00;30.23;;;-0.30;1.00;;;;;;5015104;28;20186;-90
2024/01/19 01:20:38;;;;;;;68.80;26.17;;;-0.40;1.00;;;;;;5006269;28;20188;-89
2024/01/19 01:23:03;;;;;;;57.90;27.77;;;-0.40;1.00;;;;;;5013120;28;20187;-89
2024/01/19 01:25:30;;;;;;;98.67;25.00;;;-0.40;1.00;;;;;;5010923;28;20197;-89
2024/01/19 01:27:56;;;;;;;60.20;26.40;;;-0.40;1.00;;;;;;5019553;28;20558;-90
2024/01/19 01:30:22;;;;;;;57.63;27.80;;;-0.40;1.00;;;;;;5005591;28;20187;-88
2024/01/19 01:32:47;;;;;;;63.67;27.80;;;-0.40;1.00;;;;;;5011948;28;20692;-89
2024/01/19 01:35:13;;;;;;;51.43;26.07;;;-0.40;1.00;;;;;;5026002;28;20179;-89
2024/01/19 01:37:39;;;;;;;73.50;29.43;;;-0.40;1.00;;;;;;5012897;28;20539;-88
2024/01/19 01:40:05;;;;;;;62.43;26.47;;;-0.40;1.00;;;;;;5007402;28;20451;-89
2024/01/19 01:42:31;;;;;;;63.42;28.35;;;-0.30;1.00;;;;;;5014242;28;20214;-89
2024/01/19 01:44:58;;;;;;;66.10;24.20;;;-0.30;1.00;;;;;;5008594;28;20202;-88
2024/01/19 01:47:24;;;;;;;51.40;22.35;;;-0.30;1.00;;;;;;5017722;28;20201;-90
2024/01/19 01:49:50;;;;;;;62.90;26.50;;;-0.30;1.00;;;;;;5020895;28;20190;-89
2024/01/19 01:52:15;;;;;;;63.00;25.77;;;-0.30;1.00;;;;;;5029484;28;20484;-89
2024/01/19 01:54:41;;;;;;;64.47;26.27;;;-0.20;1.00;;;;;;5010479;28;20270;-89
2024/01/19 01:57:07;;;;;;;68.03;27.10;;;-0.20;1.00;;;;;;5032717;28;20648;-89
2024/01/19 01:59:33;;;;;;;62.35;25.10;;;-0.20;1.00;;;;;;5018321;28;20265;-89
2024/01/19 02:01:59;;;;;;;71.70;28.37;;;-0.20;1.00;;;;;;5017548;28;20772;-90
2024/01/19 02:04:27;;;;;;;59.60;25.17;;;-0.20;1.00;;;;;;5014506;28;20183;-89
2024/01/19 02:06:53;;;;;;;45.03;23.25;;;-0.20;1.00;;;;;;5016201;28;20683;-88
2024/01/19 02:09:18;;;;;;;55.17;24.17;;;-0.10;1.00;;;;;;5016592;28;20218;-88
2024/01/19 02:11:44;;;;;;;59.90;23.10;;;-0.10;1.00;;;;;;5014938;28;20579;-90
2024/01/19 02:14:10;;;;;;;47.00;21.07;;;-0.20;1.00;;;;;;5015885;28;20186;-89
2024/01/19 02:16:36;;;;;;;56.87;23.63;;;-0.10;1.00;;;;;;5016427;28;20183;-90
2024/01/19 02:19:02;;;;;;;57.38;24.88;;;-0.10;1.00;;;;;;5012161;28;20795;-89
2024/01/19 02:21:29;;;;;;;51.13;23.60;;;-0.10;1.00;;;;;;5021589;28;20282;-89
2024/01/19 02:24:01;;;;;;;48.45;22.35;;;-0.10;1.00;;;;;;5014316;28;20240;-90
2024/01/19 02:26:28;;;;;;;55.47;24.38;;;-0.10;1.00;;;;;;5008416;28;20282;-87
2024/01/19 02:28:54;;;;;;;52.67;23.92;;;-0.10;1.00;;;;;;5015593;28;20190;-87
2024/01/19 02:31:20;;;;;;;62.07;24.17;;;-0.10;1.00;;;;;;5017033;28;20210;-87
2024/01/19 02:33:45;;;;;;;54.57;22.00;;;0.00;1.00;;;;;;5015351;28;20743;-90
2024/01/19 02:36:11;;;;;;;48.00;21.47;;;0.00;1.00;;;;;;5009432;28;20190;-88
2024/01/19 02:38:36;;;;;;;47.83;21.20;;;0.00;1.00;;;;;;5016257;28;20183;-89
2024/01/19 02:41:02;;;;;;;56.97;21.40;;;0.00;1.00;;;;;;5034567;28;20712;-90
2024/01/19 02:43:27;;;;;;;55.83;23.37;;;0.00;1.00;;;;;;5015096;28;20189;-89
2024/01/19 02:45:53;;;;;;;50.80;21.03;;;0.00;1.00;;;;;;5011967;28;20183;-89
2024/01/19 02:48:19;;;;;;;56.50;20.97;;;0.10;1.00;;;;;;5033189;28;20183;-89
2024/01/19 02:50:44;;;;;;;48.53;21.30;;;0.10;1.00;;;;;;5012975;28;20281;-89
2024/01/19 02:53:10;;;;;;;62.20;25.37;;;0.10;1.00;;;;;;5010499;28;20235;-88
2024/01/19 02:55:36;;;;;;;46.83;19.60;;;0.10;1.00;;;;;;5017225;28;20921;-88
2024/01/19 02:58:01;;;;;;;47.40;22.73;;;0.10;1.00;;;;;;5015383;28;20193;-88
2024/01/19 03:00:27;;;;;;;55.30;21.73;;;0.10;1.00;;;;;;5006266;28;20190;-88
2024/01/19 03:02:53;;;;;;;54.20;20.73;;;0.20;1.00;;;;;;5006708;28;20214;-89
2024/01/19 03:05:19;;;;;;;45.47;20.17;;;0.20;1.00;;;;;;5015660;28;20209;-89
2024/01/19 03:07:44;;;;;;;54.55;23.52;;;0.30;1.00;;;;;;5012433;28;20277;-89
2024/01/19 03:10:10;;;;;;;55.30;23.43;;;0.30;1.00;;;;;;5011172;28;20277;-91
2024/01/19 03:12:37;;;;;;;62.90;23.30;;;0.30;1.00;;;;;;5012565;28;20264;-89
2024/01/19 03:15:03;;;;;;;58.28;22.65;;;0.30;1.00;;;;;;5015539;28;20618;-88
2024/01/19 03:17:29;;;;;;;54.50;22.75;;;0.30;1.00;;;;;;5029885;28;20242;-88
2024/01/19 03:19:55;;;;;;;55.53;25.90;;;0.30;1.00;;;;;;5007811;28;20269;-88
2024/01/19 03:22:20;;;;;;;54.03;21.80;;;0.40;1.00;;;;;;5013911;28;20276;-88
2024/01/19 03:24:46;;;;;;;44.63;21.10;;;0.40;1.00;;;;;;5012778;28;20202;-88
2024/01/19 03:27:15;;;;;;;55.47;23.73;;;0.40;1.00;;;;;;5012785;28;20215;-89
2024/01/19 03:29:40;;;;;;;59.42;24.25;;;0.40;1.00;;;;;;5028937;28;20273;-89
2024/01/19 03:32:06;;;;;;;61.37;23.80;;;0.50;1.00;;;;;;5010324;28;20775;-89
2024/01/19 03:34:32;;;;;;;61.07;21.60;;;0.50;1.00;;;;;;5018772;28;20458;-89
2024/01/19 03:37:03;;;;;;;51.67;25.00;;;0.50;1.00;;;;;;5014865;28;20239;-89
2024/01/19 03:39:31;;;;;;;56.70;22.95;;;0.50;1.00;;;;;;5012932;28;20182;-90
2024/01/19 03:41:56;;;;;;;64.00;25.17;;;0.60;1.00;;;;;;5007224;28;20206;-87
2024/01/19 03:44:23;;;;;;;59.37;22.70;;;0.60;1.00;;;;;;5015407;28;20580;-87
2024/01/19 03:46:49;;;;;;;57.08;25.15;;;0.60;1.00;;;;;;5015692;28;20190;-87
2024/01/19 03:49:15;;;;;;;64.30;24.20;;;0.60;1.00;;;;;;5013907;28;20191;-88
2024/01/19 03:52:04;;;;;;;51.07;23.80;;;0.70;1.00;;;;;;5019014;28;20675;-89
2024/01/19 03:54:30;;;;;;;53.03;24.90;;;0.70;1.00;;;;;;5013591;28;20560;-89
2024/01/19 03:56:58;;;;;;;53.47;24.07;;;0.70;1.00;;;;;;5011765;28;20262;-88
2024/01/19 03:59:23;;;;;;;53.30;23.48;;;0.70;1.00;;;;;;5033619;28;20186;-89
2024/01/19 04:01:49;;;;;;;62.97;27.10;;;0.70;1.00;;;;;;5014910;28;20219;-89
2024/01/19 04:04:15;;;;;;;60.42;23.15;;;0.70;1.00;;;;;;5014008;28;20207;-89
2024/01/19 04:06:41;;;;;;;43.87;22.30;;;0.70;1.00;;;;;;5014104;28;20191;-88
2024/01/19 04:09:06;;;;;;;52.50;20.97;;;0.70;1.00;;;;;;5014590;28;20707;-89
2024/01/19 04:11:39;;;;;;;47.77;22.17;;;0.70;1.00;;;;;;5018668;28;20695;-87
2024/01/19 04:14:05;;;;;;;48.90;21.92;;;0.70;1.00;;;;;;5021920;28;20276;-87
2024/01/19 04:16:30;;;;;;;37.67;19.57;;;0.70;1.00;;;;;;5032586;28;20217;-89
2024/01/19 04:18:56;;;;;;;55.10;22.60;;;0.80;1.00;;;;;;5033059;28;20181;-90
2024/01/19 04:21:21;;;;;;;44.57;20.20;;;0.80;1.00;;;;;;5012383;28;20202;-87
2024/01/19 04:23:48;;;;;;;43.97;21.30;;;0.80;1.00;;;;;;5013997;28;20214;-89
2024/01/19 04:26:13;;;;;;;47.13;22.27;;;0.80;1.00;;;;;;5011335;28;20560;-89
2024/01/19 04:28:39;;;;;;;41.73;20.90;;;0.80;1.00;;;;;;5015129;28;20218;-88
2024/01/19 04:31:06;;;;;;;39.33;20.80;;;0.70;1.00;;;;;;5013546;28;20221;-87
2024/01/19 04:33:34;;;;;;;45.40;19.23;;;0.70;1.00;;;;;;5031605;28;20241;-89
2024/01/19 04:36:00;;;;;;;41.15;19.10;;;0.70;1.00;;;;;;5011712;28;20191;-87
2024/01/19 04:38:26;;;;;;;43.90;21.63;;;0.70;1.00;;;;;;5010356;28;20220;-88
2024/01/19 04:40:51;;;;;;;48.07;20.20;;;0.70;1.00;;;;;;5011869;28;20198;-89
2024/01/19 04:43:17;;;;;;;40.10;19.50;;;0.70;1.00;;;;;;5009350;28;20193;-90
2024/01/19 04:45:44;;;;;;;42.73;18.83;;;0.70;1.00;;;;;;5007301;28;20186;-89
2024/01/19 04:48:09;;;;;;;43.58;19.23;;;0.60;1.00;;;;;;5007129;28;20687;-89
2024/01/19 04:50:35;;;;;;;40.63;19.27;;;0.60;1.00;;;;;;5014694;28;20186;-90
2024/01/19 04:53:01;;;;;;;44.50;17.90;;;0.60;1.00;;;;;;5003609;28;20211;-90
2024/01/19 04:55:26;;;;;;;39.17;20.33;;;0.60;1.00;;;;;;5011274;28;20228;-90
2024/01/19 04:57:52;;;;;;;33.00;18.13;;;0.70;1.00;;;;;;5030283;28;20189;-90
2024/01/19 05:00:20;;;;;;;36.43;17.40;;;0.70;1.00;;;;;;5009310;28;20179;-90
2024/01/19 05:02:46;;;;;;;34.88;16.52;;;0.70;1.00;;;;;;5012674;28;20221;-89
2024/01/19 05:05:12;;;;;;;41.37;19.60;;;0.70;1.00;;;;;;5013007;28;20186;-88
2024/01/19 05:07:37;;;;;;;39.97;22.13;;;0.70;1.00;;;;;;5008569;28;20264;-89
2024/01/19 05:10:06;;;;;;;42.53;17.50;;;0.70;1.00;;;;;;5013797;28;20196;-87
2024/01/19 05:12:32;;;;;;;39.95;18.20;;;0.70;1.00;;;;;;5011652;28;20242;-87
2024/01/19 05:14:58;;;;;;;34.67;17.60;;;0.70;1.00;;;;;;5028684;28;20182;-87
2024/01/19 05:17:24;;;;;;;36.60;17.67;;;0.80;1.00;;;;;;5009231;28;20734;-88
2024/01/19 05:19:49;;;;;;;36.50;20.10;;;0.80;1.00;;;;;;5028159;28;20187;-89
2024/01/19 05:22:15;;;;;;;34.30;18.07;;;0.80;1.00;;;;;;5011129;28;20348;-88
2024/01/19 05:24:41;;;;;;;43.17;19.77;;;0.80;1.00;;;;;;5010729;28;20190;-89
2024/01/19 05:27:10;;;;;;;37.30;20.42;;;0.80;1.00;;;;;;5009169;28;20194;-89
2024/01/19 05:29:36;;;;;;;38.83;20.17;;;0.80;1.00;;;;;;5013460;28;20213;-88
2024/01/19 05:32:02;;;;;;;42.37;19.33;;;0.80;1.00;;;;;;5010979;28;20662;-88
2024/01/19 05:34:28;;;;;;;41.92;21.75;;;0.80;1.00;;;;;;5010669;28;20212;-89
2024/01/19 05:36:54;;;;;;;39.70;21.70;;;0.70;1.00;;;;;;5016338;28;20222;-90
2024/01/19 05:39:20;;;;;;;35.13;19.23;;;0.70;1.00;;;;;;5015857;28;20214;-89
2024/01/19 05:41:45;;;;;;;38.20;20.57;;;0.70;1.00;;;;;;5015046;28;20527;-87
2024/01/19 05:44:11;;;;;;;35.13;17.87;;;0.70;1.00;;;;;;5008762;28;20532;-88
2024/01/19 05:46:37;;;;;;;41.70;19.70;;;0.70;1.00;;;;;;5013142;28;20182;-89
2024/01/19 05:49:03;;;;;;;39.03;19.43;;;0.60;1.00;;;;;;5011764;28;20672;-89
2024/01/19 05:51:28;;;;;;;60.07;20.80;;;0.60;1.00;;;;;;5015844;28;20328;-89
2024/01/19 05:53:54;;;;;;;41.53;19.00;;;0.50;1.00;;;;;;5019299;28;20603;-89
2024/01/19 05:56:20;;;;;;;38.13;18.40;;;0.40;1.00;;;;;;5016629;28;20187;-89
2024/01/19 05:58:45;;;;;;;44.00;21.77;;;0.30;1.00;;;;;;5012774;28;20182;-89
2024/01/19 06:01:11;;;;;;;47.37;20.20;;;0.20;1.00;;;;;;5017767;28;20601;-89
2024/01/19 06:03:37;;;;;;;34.50;18.00;;;0.20;1.00;;;;;;5018191;28;20194;-89
2024/01/19 06:06:04;;;;;;;42.72;20.92;;;0.10;1.00;;;;;;5017802;28;20272;-89
2024/01/19 06:08:30;;;;;;;42.40;20.50;;;0.10;1.00;;;;;;5006915;28;20191;-90
2024/01/19 06:10:56;;;;;;;46.72;20.25;;;0.00;1.00;;;;;;5015634;28;20214;-89
2024/01/19 06:13:22;;;;;;;39.08;19.73;;;0.00;1.00;;;;;;5011900;28;20207;-89
2024/01/19 06:15:48;;;;;;;40.53;20.93;;;-0.10;1.00;;;;;;5012071;28;20605;-90
2024/01/19 06:18:13;;;;;;;46.87;20.03;;;-0.10;1.00;;;;;;5013217;28;20821;-88
2024/01/19 06:20:41;;;;;;;38.47;18.37;;;-0.20;1.00;;;;;;5034645;28;20242;-88
2024/01/19 06:23:11;;;;;;;40.85;19.52;;;-0.20;1.00;;;;;;5014538;28;20680;-87
2024/01/19 06:25:37;;;;;;;42.30;19.15;;;-0.20;1.00;;;;;;5016265;28;20183;-90
2024/01/19 06:28:04;;;;;;;42.42;19.08;;;-0.20;1.00;;;;;;5014865;28;20461;-89
2024/01/19 06:30:29;;;;;;;40.15;20.17;;;-0.10;1.00;;;;;;5029987;28;20185;-89
2024/01/19 06:32:55;;;;;;;32.30;16.57;;;-0.10;1.00;;;;;;5010769;28;20207;-87
2024/01/19 06:35:21;;;;;;;40.53;19.97;;;-0.10;1.00;;;;;;5016005;28;20182;-86
2024/01/19 06:37:46;;;;;;;35.37;16.77;;;0.00;1.00;;;;;;5012811;28;20438;-88
2024/01/19 06:40:14;;;;;;;43.60;20.43;;;0.00;1.00;;;;;;5014544;28;20452;-89
2024/01/19 06:42:40;;;;;;;43.25;22.75;;;0.00;1.00;;;;;;5019573;28;20201;-90
2024/01/19 06:45:06;;;;;;;35.95;19.90;;;0.10;1.00;;;;;;5017566;28;20190;-88
2024/01/19 06:47:32;;;;;;;40.92;19.27;;;0.10;1.00;;;;;;5011911;28;20203;-88
2024/01/19 06:50:00;;;;;;;45.07;22.30;;;0.10;1.00;;;;;;5015041;28;20225;-90
2024/01/19 06:52:26;;;;;;;37.53;20.23;;;0.10;1.00;;;;;;5032684;28;20217;-91
2024/01/19 06:54:51;;;;;;;36.23;20.27;;;0.10;1.00;;;;;;5007846;28;20205;-90
2024/01/19 06:57:17;;;;;;;37.70;21.20;;;0.10;1.00;;;;;;5010752;28;20214;-90
2024/01/19 06:59:43;;;;;;;45.47;21.10;;;0.10;1.00;;;;;;5011909;28;20214;-89
2024/01/19 07:02:08;;;;;;;43.10;21.33;;;0.10;1.00;;;;;;5008269;28;20234;-92
2024/01/19 07:04:34;;;;;;;34.27;19.13;;;0.10;1.00;;;;;;5017933;28;20182;-91
2024/01/19 07:07:00;;;;;;;40.67;19.57;;;0.10;1.00;;;;;;5008398;28;20314;-91
2024/01/19 07:09:29;;;;;;;46.33;22.08;;;0.10;1.00;;;;;;5012131;28;20182;-91
2024/01/19 07:11:55;;;;;;;51.80;21.75;;;0.20;1.00;;;;;;5012629;28;20222;-91
2024/01/19 07:14:25;;;;;;;49.75;21.00;;;0.20;1.00;;;;;;5009311;28;20211;-91
2024/01/19 07:16:51;;;;;;;43.47;23.10;;;0.20;1.00;;;;;;5014082;28;20187;-91
2024/01/19 07:19:23;;;;;;;42.78;20.52;;;0.20;1.00;;;;;;5013803;28;20183;-91
2024/01/19 07:21:51;;;;;;;42.55;21.58;;;0.20;1.00;;;;;;5026838;28;20281;-91
2024/01/19 07:24:32;;;;;;;48.15;24.27;;;0.20;1.00;;;;;;5004732;28;20241;-91
2024/01/19 07:26:59;;;;;;;46.25;22.88;;;0.20;1.00;;;;;;5005131;28;20194;-90
2024/01/19 07:29:27;;;;;;;39.80;21.48;;;0.30;1.00;;;;;;5009352;28;20210;-89
2024/01/19 07:31:55;;;;;;;37.65;20.30;;;0.40;1.00;;;;;;5010853;28;20206;-88
2024/01/19 07:34:21;;;;;;;38.03;20.08;;;0.50;1.00;;;;;;5004886;28;20187;-90
2024/01/19 07:36:49;;;;;;;42.30;20.43;;;0.60;1.00;;;;;;5035328;28;20265;-91
2024/01/19 07:39:15;;;;;;;43.75;20.45;;;0.60;1.00;;;;;;5011029;28;20179;-90
2024/01/19 07:41:41;;;;;;;38.00;22.33;;;0.60;1.00;;;;;;5027723;28;20210;-90
2024/01/19 07:44:06;;;;;;;42.27;19.97;;;0.60;1.00;;;;;;5032233;28;20282;-91
2024/01/19 07:46:35;;;;;;;42.97;20.67;;;0.70;1.00;;;;;;5027488;28;20186;-89
2024/01/19 07:49:01;;;;;;;44.95;20.98;;;0.70;1.00;;;;;;5014339;28;20473;-91
2024/01/19 07:51:27;;;;;;;39.03;20.70;;;0.60;1.00;;;;;;5031024;28;20241;-91
2024/01/19 07:53:54;;;;;;;34.80;22.03;;;0.60;1.00;;;;;;5013489;28;20301;-90
2024/01/19 07:56:23;;;;;;;39.35;20.88;;;0.60;1.00;;;;;;5013465;28;20262;-90
2024/01/19 07:58:48;;;;;;;38.63;20.42;;;0.60;1.00;;;;;;5011784;28;20198;-90
2024/01/19 08:01:14;;;;;;;40.27;21.33;;;0.60;1.00;;;;;;5011364;28;20206;-89
2024/01/19 08:03:40;;;;;;;38.70;20.97;;;0.70;1.00;;;;;;5003539;28;20205;-88
2024/01/19 08:06:05;;;;;;;35.37;20.47;;;0.70;99.90;;;;;;5005678;28;20187;-92
2024/01/19 08:08:34;;;;;;;40.00;19.67;;;0.80;99.90;;;;;;5011873;28;20209;-89
2024/01/19 08:11:00;;;;;;;32.17;19.50;;;1.00;99.90;;;;;;5007431;28;20465;-88
2024/01/19 08:13:25;;;;;;;37.23;19.53;;;1.20;99.90;;;;;;5011559;28;20206;-88
2024/01/19 08:15:52;;;;;;;40.33;19.00;;;1.40;1.00;;;;;;5016794;28;20328;-88
2024/01/19 08:18:17;;;;;;;39.28;21.13;;;1.60;99.90;;;;;;5011283;28;20273;-87
2024/01/19 08:20:43;;;;;;;41.67;21.47;;;1.80;1.00;;;;;;5009533;28;20269;-88
2024/01/19 08:23:08;;;;;;;34.70;18.73;;;1.70;99.90;;;;;;5003531;28;20656;-89
2024/01/19 08:25:34;;;;;;;44.80;21.97;;;1.60;99.90;;;;;;5029500;28;20187;-88
2024/01/19 08:28:00;;;;;;;34.97;20.30;;;1.60;1.00;;;;;;5005397;28;20875;-87
2024/01/19 08:30:26;;;;;;;35.50;20.55;;;1.50;1.00;;;;;;5024094;28;20179;-87
2024/01/19 08:32:52;;;;;;;40.50;21.20;;;1.40;99.90;;;;;;5027890;28;20352;-88
2024/01/19 08:35:18;;;;;;;45.40;21.60;;;1.40;1.00;;;;;;5008224;28;20273;-87
2024/01/19 08:37:43;;;;;;;42.00;20.57;;;1.30;1.00;;;;;;5026391;28;20262;-88
2024/01/19 08:40:11;;;;;;;50.17;20.00;;;1.50;1.00;;;;;;5001638;28;20440;-87
2024/01/19 08:42:38;;;;;;;41.08;19.85;;;1.60;99.90;;;;;;5027809;28;20207;-88
2024/01/19 08:45:04;;;;;;;40.95;21.23;;;1.60;99.90;;;;;;5009222;28;20218;-86
2024/01/19 08:47:30;;;;;;;38.85;21.00;;;1.80;99.90;;;;;;5032345;28;20244;-87
2024/01/19 08:49:55;;;;;;;41.20;20.70;;;1.90;99.90;;;;;;5023734;28;20182;-87
2024/01/19 08:52:24;;;;;;;58.07;21.37;;;2.20;23.20;;;;;;5012281;28;20703;-89
2024/01/19 08:54:53;;;;;;;42.25;20.52;;;2.50;1.00;;;;;;5012060;28;20191;-88
2024/01/19 08:57:19;;;;;;;38.95;19.63;;;2.60;1.00;;;;;;5006450;28;20194;-89
2024/01/19 08:59:45;;;;;;;36.97;20.73;;;2.70;99.90;;;;;;5003215;28;20187;-89
2024/01/19 09:02:11;;;;;;;42.95;19.92;;;2.60;28.80;;;;;;5005852;28;20230;-89
2024/01/19 09:04:45;;;;;;;43.10;19.80;;;2.60;99.90;;;;;;5025251;28;20223;-89
2024/01/19 09:07:13;;;;;;;35.67;19.08;;;2.50;99.90;;;;;;5012231;28;20500;-88
2024/01/19 09:09:40;;;;;;;45.70;20.88;;;2.40;99.90;;;;;;5019438;28;20175;-89
2024/01/19 09:12:08;;;;;;;42.40;19.42;;;2.30;1.00;;;;;;5003384;28;20639;-89
2024/01/19 09:14:43;;;;;;;46.08;21.88;;;2.20;99.90;;;;;;5015627;28;20185;-88
2024/01/19 09:17:09;;;;;;;38.22;20.30;;;2.10;99.90;;;;;;5009568;28;20618;-89
2024/01/19 09:19:37;;;;;;;40.67;21.10;;;2.30;99.90;;;;;;5027717;28;20185;-89
2024/01/19 09:22:03;;;;;;;36.45;20.08;;;2.30;99.90;;;;;;5004845;28;20206;-89
2024/01/19 09:24:37;;;;;;;39.43;19.70;;;2.30;94.60;;;;;;5008245;28;20237;-88
2024/01/19 09:27:03;;;;;;;42.75;21.40;;;2.30;99.90;;;;;;5005611;28;20559;-87
2024/01/19 09:29:29;;;;;;;46.40;21.63;;;2.50;99.90;;;;;;5017973;28;20261;-88
2024/01/19 09:31:54;;;;;;;43.63;20.73;;;2.80;1.00;;;;;;5007922;28;20507;-88
2024/01/19 09:34:20;;;;;;;43.27;22.37;;;3.10;15.20;;;;;;5007675;28;20202;-89
2024/01/19 09:36:45;;;;;;;36.60;20.77;;;3.10;99.90;;;;;;5026389;28;20175;-90
2024/01/19 09:39:11;;;;;;;46.03;20.87;;;3.00;99.90;;;;;;5006956;28;20185;-88
2024/01/19 09:41:44;;;;;;;40.13;21.43;;;3.00;1.00;;;;;;5008987;28;20293;-88
2024/01/19 09:44:11;;;;;;;38.95;20.40;;;3.00;1.00;;;;;;5013055;28;20222;-88
2024/01/19 09:47:05;;;;;;;40.33;20.48;;;2.90;1.00;;;;;;5004290;28;20191;-91
2024/01/19 09:49:39;;;;;;;40.78;21.60;;;2.90;1.00;;;;;;5008550;28;20183;-89
2024/01/19 09:52:29;;;;;;;42.00;21.50;;;3.00;1.00;;;;;;5025634;28;20249;-88
2024/01/19 09:54:55;;;;;;;40.40;20.52;;;3.00;1.00;;;;;;5012444;28;20641;-87
2024/01/19 09:57:21;;;;;;;38.97;20.83;;;2.80;1.00;;;;;;5009719;28;20233;-91
2024/01/19 09:59:47;;;;;;;46.03;20.53;;;2.90;1.00;;;;;;5010477;28;20218;-90
2024/01/19 10:02:15;;;;;;;38.77;20.83;;;3.00;12.40;;;;;;5008484;28;20336;-88
2024/01/19 10:04:41;;;;;;;45.60;20.95;;;3.10;17.40;;;;;;5026779;28;20190;-89
2024/01/19 10:07:08;;;;;;;43.20;21.63;;;3.30;1.00;;;;;;5005425;28;20195;-89
2024/01/19 10:09:34;;;;;;;41.13;22.00;;;3.70;99.90;;;;;;5004484;28;20229;-89
2024/01/19 10:12:00;;;;;;;38.22;19.05;;;4.20;1.00;;;;;;5025792;28;20221;-89
2024/01/19 10:14:26;;;;;;;37.63;19.58;;;4.70;99.90;;;;;;5011296;28;20171;-87
2024/01/19 10:16:54;;;;;;;32.77;18.47;;;4.90;99.90;;;;;;5028471;28;20179;-89
2024/01/19 10:19:22;;;;;;;39.38;19.60;;;5.10;79.30;;;;;;5013878;28;20469;-86
2024/01/19 10:21:52;;;;;;;36.10;19.30;;;5.30;1.00;;;;;;5006591;28;20219;-87
2024/01/19 10:24:19;;;;;;;32.55;18.25;;;5.50;1.00;;;;;;5031136;28;20193;-88
2024/01/19 10:26:57;;;;;;;32.35;18.83;;;5.50;1.00;;;;;;5012653;28;20256;-88
2024/01/19 10:29:26;;;;;;;37.45;18.60;;;5.90;1.00;;;;;;5029536;28;20182;-88
2024/01/19 10:31:53;;;;;;;33.90;19.45;;;6.10;1.00;;;;;;5007169;28;20652;-86
2024/01/19 10:34:21;;;;;;;39.40;19.47;;;6.30;1.00;;;;;;5015679;28;20279;-87
2024/01/19 10:36:48;;;;;;;33.50;18.87;;;6.40;1.00;;;;;;5014449;28;20805;-88
2024/01/19 10:39:17;;;;;;;33.10;19.43;;;6.30;1.00;;;;;;5009786;28;20437;-89
2024/01/19 10:41:43;;;;;;;32.20;18.53;;;6.20;1.00;;;;;;5014681;28;20461;-89
2024/01/19 10:44:13;;;;;;;32.90;18.60;;;6.10;1.00;;;;;;5010476;28;20817;-87
2024/01/19 10:46:40;;;;;;;38.50;21.20;;;5.90;1.00;;;;;;5013633;28;20500;-88
2024/01/19 10:49:15;;;;;;;38.85;20.90;;;5.70;1.00;;;;;;5006381;28;20179;-87
2024/01/19 10:51:43;;;;;;;33.85;18.75;;;5.50;1.00;;;;;;5010828;28;20566;-86
2024/01/19 10:54:23;;;;;;;37.05;18.80;;;5.40;1.00;;;;;;5033215;28;20198;-86
2024/01/19 10:56:50;;;;;;;27.77;17.30;;;5.20;1.00;;;;;;5008011;28;20559;-84
2024/01/19 10:59:19;;;;;;;37.95;20.08;;;5.10;1.00;;;;;;5015357;28;20644;-88
2024/01/19 11:01:58;;;;;;;34.45;18.83;;;5.00;1.00;;;;;;5012717;28;20257;-89
2024/01/19 11:04:24;;;;;;;35.58;19.48;;;4.90;1.00;;;;;;5030288;28;20193;-88
2024/01/19 11:06:53;;;;;;;41.17;19.05;;;4.80;1.00;;;;;;5011841;28;20190;-88
2024/01/19 11:09:19;;;;;;;35.47;18.77;;;4.70;1.00;;;;;;5012132;28;20318;-88
2024/01/19 11:11:51;;;;;;;32.50;17.67;;;4.60;1.00;;;;;;5014305;28;20293;-88
2024/01/19 11:14:20;;;;;;;31.10;17.27;;;4.50;1.00;;;;;;5010908;28;20186;-89
2024/01/19 11:16:47;;;;;;;33.83;17.75;;;4.50;1.00;;;;;;5011605;28;20175;-87
2024/01/19 11:19:20;;;;;;;30.38;18.80;;;4.50;1.00;;;;;;5030012;28;20194;-86
2024/01/19 11:21:46;;;;;;;32.83;18.33;;;4.50;1.00;;;;;;5013428;28;20195;-86
2024/01/19 11:24:26;;;;;;;33.40;17.70;;;4.60;1.00;;;;;;5012157;28;20187;-87
2024/01/19 11:27:25;;;;;;;33.47;18.38;;;4.70;1.00;;;;;;5019811;28;20829;-86
2024/01/19 11:30:09;;;;;;;27.57;17.37;;;5.00;1.00;;;;;;5011929;28;20187;-86
2024/01/19 11:32:40;;;;;;;39.17;18.50;;;6.20;1.00;;;;;;5002351;28;20469;-89
2024/01/19 11:35:06;;;;;;;29.17;17.50;;;7.70;1.00;;;;;;5014175;28;20446;-88
2024/01/19 11:37:58;;;;;;;29.03;17.93;;;8.90;1.00;;;;;;5012714;28;20433;-89
2024/01/19 11:40:37;;;;;;;35.17;17.10;;;10.00;99.90;;;;;;5005238;28;20648;-87
2024/01/19 11:43:03;;;;;;;25.70;18.10;;;10.90;99.90;;;;;;5011523;28;20807;-87
2024/01/19 11:45:40;;;;;;;30.20;18.03;;;11.70;99.90;;;;;;5010819;28;20444;-87
2024/01/19 11:48:11;;;;;;;26.73;16.53;;;12.60;99.90;;;;;;5011872;28;20580;-88
2024/01/19 11:51:00;;;;;;;29.43;17.30;;;12.90;99.90;;;;;;5026569;28;20436;-88
2024/01/19 11:54:05;;;;;;;26.50;17.40;;;13.50;99.90;;;;;;5009344;28;21066;-89
2024/01/19 11:56:33;;;;;;;26.10;17.00;;;13.80;99.90;;;;;;5029764;28;20782;-89
2024/01/19 11:59:25;;;;;;;27.13;17.60;;;14.00;99.90;;;;;;5006099;28;20434;-88
2024/01/19 12:02:23;;;;;;;26.77;17.97;;;14.50;99.90;;;;;;5006380;28;20995;-88
2024/01/19 12:05:08;;;;;;;30.90;18.57;;;15.00;99.90;;;;;;5007752;28;20514;-90
2024/01/19 12:07:53;;;;;;;22.40;16.77;;;15.30;99.90;;;;;;5027476;28;20433;-86
2024/01/19 12:10:20;;;;;;;26.23;17.17;;;15.40;99.90;;;;;;5011670;28;20448;-89
2024/01/19 12:12:49;;;;;;;26.70;17.70;;;15.40;99.90;;;;;;5006640;28;20465;-88
2024/01/19 12:15:18;;;;;;;24.37;16.93;;;15.50;99.90;;;;;;5009695;28;20190;-88
2024/01/19 12:17:44;;;;;;;26.30;17.53;;;15.80;99.90;;;;;;5006816;28;20465;-91
2024/01/19 12:20:15;;;;;;;24.33;16.93;;;15.80;99.90;;;;;;5008100;28;20947;-90
2024/01/19 12:22:42;;;;;;;27.77;17.00;;;16.00;99.90;;;;;;5008769;28;20468;-90
2024/01/19 12:25:23;;;;;;;27.33;18.60;;;16.10;99.90;;;;;;5004987;28;20441;-90
2024/01/19 12:28:00;;;;;;;25.50;18.13;;;16.10;99.90;;;;;;5008678;28;20511;-88
2024/01/19 12:30:33;;;;;;;30.37;18.03;;;15.90;99.90;;;;;;5012560;28;20441;-90
2024/01/19 12:33:12;;;;;;;25.40;17.80;;;15.80;99.90;;;;;;5006199;28;20527;-91
2024/01/19 12:35:41;;;;;;;23.93;16.13;;;15.50;99.90;;;;;;5020451;28;20429;-88
2024/01/19 12:38:07;;;;;;;27.53;17.47;;;15.10;99.90;;;;;;5018985;28;20469;-90
2024/01/19 12:40:40;;;;;;;28.77;17.00;;;15.20;99.90;;;;;;5012143;28;20441;-88
2024/01/19 12:43:06;;;;;;;19.43;15.57;;;15.20;99.90;;;;;;5009626;28;20845;-88
2024/01/19 12:45:38;;;;;;;23.77;17.70;;;15.00;99.90;;;;;;5011653;28;20499;-89
2024/01/19 12:51:03;;;;;;;22.30;14.90;;;14.40;99.90;;;;;;5031071;28;20498;-88